Time;durP1;ratioP1;P1;durP2;ratioP2;P2;SDS_P1;SDS_P2;PMS_P1;PMS_P2;Temp;Humidity;BMP_temperature;BMP_pressure;BME280_temperature;BME280_humidity;BME280_pressure;Samples;Min_cycle;Max_cycle;Signal;HPM_P1;HPM_P2
2022/08/04 00:00:06;;;;;;;12.90;10.87;;;;;;;;;;769460;178;631510;-60
2022/08/04 00:02:35;;;;;;;10.97;9.87;;;;;;;;;;759690;179;632923;-60
2022/08/04 00:05:03;;;;;;;11.60;10.27;;;;;;;;;;769631;180;615414;-60
2022/08/04 00:07:31;;;;;;;12.70;10.27;;;;;;;;;;764871;178;632216;-57
2022/08/04 00:09:56;;;;;;;14.60;11.60;;;;;;;;;;767135;180;635459;-58
2022/08/04 00:12:22;;;;;;;13.77;12.37;;;;;;;;;;768473;180;641948;-60
2022/08/04 00:14:48;;;;;;;13.07;11.77;;;;;;;;;;770793;183;630341;-59
2022/08/04 00:17:14;;;;;;;17.77;14.67;;;;;;;;;;760919;183;623583;-59
2022/08/04 00:19:40;;;;;;;15.30;13.70;;;;;;;;;;763325;181;635075;-60
2022/08/04 00:22:06;;;;;;;18.00;15.57;;;;;;;;;;768821;181;631011;-58
2022/08/04 00:24:32;;;;;;;17.77;15.87;;;;;;;;;;765867;178;617348;-57
2022/08/04 00:26:58;;;;;;;17.57;15.60;;;;;;;;;;766078;183;642724;-58
2022/08/04 00:29:24;;;;;;;19.27;17.27;;;;;;;;;;770217;180;613584;-57
2022/08/04 00:31:49;;;;;;;17.00;15.20;;;;;;;;;;767858;180;639120;-59
2022/08/04 00:34:15;;;;;;;16.83;14.80;;;;;;;;;;766337;183;617464;-59
2022/08/04 00:36:42;;;;;;;12.87;11.37;;;;;;;;;;769839;180;634393;-60
2022/08/04 00:39:08;;;;;;;14.37;12.43;;;;;;;;;;768290;180;633662;-57
2022/08/04 00:41:35;;;;;;;12.50;10.73;;;;;;;;;;766430;180;634386;-59
2022/08/04 00:44:09;;;;;;;13.77;12.17;;;;;;;;;;768167;180;630825;-57
2022/08/04 00:46:54;;;;;;;13.52;11.68;;;;;;;;;;767279;178;617415;-58
2022/08/04 00:49:22;;;;;;;15.27;11.60;;;;;;;;;;754927;184;631762;-60
2022/08/04 00:51:48;;;;;;;13.33;12.03;;;;;;;;;;770306;181;623546;-57
2022/08/04 00:54:15;;;;;;;16.93;13.03;;;;;;;;;;768750;182;628220;-61
2022/08/04 00:56:46;;;;;;;14.20;12.70;;;;;;;;;;766944;179;623394;-60
2022/08/04 00:59:18;;;;;;;16.60;13.00;;;;;;;;;;759018;182;629190;-58
2022/08/04 01:01:46;;;;;;;16.40;12.83;;;;;;;;;;755353;183;619553;-57
2022/08/04 01:04:16;;;;;;;20.33;15.17;;;;;;;;;;759709;181;627349;-59
2022/08/04 01:06:43;;;;;;;14.13;12.67;;;;;;;;;;762269;178;630815;-57
2022/08/04 01:09:10;;;;;;;14.93;13.20;;;;;;;;;;761604;180;622545;-60
2022/08/04 01:11:49;;;;;;;16.47;14.77;;;;;;;;;;764945;178;623502;-57
2022/08/04 01:14:32;;;;;;;18.53;15.50;;;;;;;;;;768611;178;619906;-60
2022/08/04 01:16:57;;;;;;;15.97;14.30;;;;;;;;;;779577;181;619610;-59
2022/08/04 01:19:29;;;;;;;16.20;14.50;;;;;;;;;;772430;177;628450;-58
2022/08/04 01:21:59;;;;;;;15.37;13.63;;;;;;;;;;768825;183;616972;-57
2022/08/04 01:24:28;;;;;;;15.40;13.40;;;;;;;;;;771840;181;638100;-57
2022/08/04 01:27:00;;;;;;;17.00;14.57;;;;;;;;;;771191;181;633227;-60
2022/08/04 01:29:26;;;;;;;15.63;13.60;;;;;;;;;;768471;179;633118;-60
2022/08/04 01:31:55;;;;;;;17.30;15.27;;;;;;;;;;768400;177;641127;-60
2022/08/04 01:34:21;;;;;;;19.37;17.10;;;;;;;;;;768959;180;632977;-59
2022/08/04 01:36:46;;;;;;;19.73;17.67;;;;;;;;;;765102;184;629804;-57
2022/08/04 01:41:45;;;;;;;21.33;17.70;;;;;;;;;;759333;178;624766;-58
2022/08/04 01:44:10;;;;;;;23.73;19.17;;;;;;;;;;762483;179;619399;-58
2022/08/04 01:46:36;;;;;;;27.23;19.13;;;;;;;;;;759777;182;627665;-57
2022/08/04 01:49:02;;;;;;;23.40;19.47;;;;;;;;;;759924;178;621087;-59
2022/08/04 01:51:29;;;;;;;21.93;18.83;;;;;;;;;;759174;179;626977;-58
2022/08/04 01:53:54;;;;;;;23.73;19.03;;;;;;;;;;764958;177;625418;-58
2022/08/04 01:56:20;;;;;;;21.80;19.50;;;;;;;;;;775183;176;625145;-58
2022/08/04 01:58:46;;;;;;;25.10;20.53;;;;;;;;;;774735;176;629788;-60
2022/08/04 02:01:12;;;;;;;23.57;20.13;;;;;;;;;;765310;178;630705;-58
2022/08/04 02:03:38;;;;;;;24.43;19.70;;;;;;;;;;760953;178;627986;-57
2022/08/04 02:06:11;;;;;;;24.40;18.00;;;;;;;;;;760777;178;623405;-58
2022/08/04 02:08:36;;;;;;;21.13;18.93;;;;;;;;;;762482;181;619381;-58
2022/08/04 02:11:03;;;;;;;21.10;18.90;;;;;;;;;;771142;182;627850;-58
2022/08/04 02:13:31;;;;;;;22.60;18.13;;;;;;;;;;769000;177;629799;-57
2022/08/04 02:15:58;;;;;;;20.77;18.57;;;;;;;;;;763451;180;623582;-59
2022/08/04 02:18:24;;;;;;;24.00;20.90;;;;;;;;;;765479;184;617071;-56
2022/08/04 02:20:50;;;;;;;22.23;18.33;;;;;;;;;;766877;181;627475;-57
2022/08/04 02:23:16;;;;;;;20.97;18.70;;;;;;;;;;768944;177;619918;-59
2022/08/04 02:25:41;;;;;;;26.43;19.20;;;;;;;;;;774262;178;618872;-60
2022/08/04 02:28:24;;;;;;;23.60;19.33;;;;;;;;;;771331;177;617237;-59
2022/08/04 02:30:52;;;;;;;24.23;20.60;;;;;;;;;;768838;181;624345;-58
2022/08/04 02:33:20;;;;;;;21.87;19.50;;;;;;;;;;766105;183;622916;-59
2022/08/04 02:35:46;;;;;;;28.23;19.67;;;;;;;;;;768302;177;633420;-57
2022/08/04 02:38:12;;;;;;;21.60;19.30;;;;;;;;;;772849;183;638188;-56
2022/08/04 02:40:37;;;;;;;21.30;18.80;;;;;;;;;;761752;180;629557;-58
2022/08/04 02:43:03;;;;;;;24.10;19.77;;;;;;;;;;758426;185;623814;-57
2022/08/04 02:45:29;;;;;;;23.23;19.43;;;;;;;;;;762010;182;636935;-58
2022/08/04 02:47:55;;;;;;;21.17;17.90;;;;;;;;;;759943;182;623744;-57
2022/08/04 02:50:21;;;;;;;23.60;19.37;;;;;;;;;;759783;178;636645;-60
2022/08/04 02:52:47;;;;;;;22.97;20.23;;;;;;;;;;758523;185;630422;-59
2022/08/04 02:55:12;;;;;;;22.10;19.70;;;;;;;;;;757221;183;630688;-59
2022/08/04 02:57:38;;;;;;;18.13;16.23;;;;;;;;;;763268;179;623827;-59
2022/08/04 03:00:09;;;;;;;20.37;14.90;;;;;;;;;;765346;178;629113;-57
2022/08/04 03:02:48;;;;;;;17.80;15.83;;;;;;;;;;771934;177;624416;-57
2022/08/04 03:05:16;;;;;;;18.83;15.27;;;;;;;;;;769721;182;620801;-57
2022/08/04 03:07:42;;;;;;;15.87;14.17;;;;;;;;;;764002;179;652349;-61
2022/08/04 03:10:22;;;;;;;24.87;17.93;;;;;;;;;;768037;180;627252;-58
2022/08/04 03:12:48;;;;;;;24.53;19.27;;;;;;;;;;765654;181;633771;-59
2022/08/04 03:15:20;;;;;;;23.30;20.27;;;;;;;;;;769783;182;617337;-58
2022/08/04 03:18:05;;;;;;;21.30;19.10;;;;;;;;;;767856;178;674953;-56
2022/08/04 03:20:37;;;;;;;23.00;19.10;;;;;;;;;;767453;181;625806;-57
2022/08/04 03:23:09;;;;;;;23.53;20.30;;;;;;;;;;765919;179;686318;-59
2022/08/04 03:25:50;;;;;;;30.57;22.63;;;;;;;;;;764196;178;657311;-57
2022/08/04 03:28:18;;;;;;;28.63;22.00;;;;;;;;;;766948;181;628643;-59
2022/08/04 03:30:59;;;;;;;27.10;21.83;;;;;;;;;;766460;176;690109;-58
2022/08/04 03:33:31;;;;;;;24.33;21.60;;;;;;;;;;765384;180;618500;-59
2022/08/04 03:36:00;;;;;;;26.80;23.07;;;;;;;;;;769929;177;618326;-58
2022/08/04 03:38:44;;;;;;;23.23;20.10;;;;;;;;;;768673;177;632660;-58
2022/08/04 03:41:16;;;;;;;26.13;21.70;;;;;;;;;;772365;179;623310;-59
2022/08/04 03:43:48;;;;;;;28.30;22.90;;;;;;;;;;764915;177;628865;-57
2022/08/04 03:46:14;;;;;;;28.03;21.87;;;;;;;;;;765468;176;630576;-59
2022/08/04 03:48:40;;;;;;;27.63;22.87;;;;;;;;;;763627;178;633441;-57
2022/08/04 03:53:53;;;;;;;27.47;23.27;;;;;;;;;;769725;177;625399;-57
2022/08/04 03:56:35;;;;;;;29.33;22.00;;;;;;;;;;764692;178;617323;-60
2022/08/04 03:59:04;;;;;;;27.73;22.77;;;;;;;;;;768063;182;632537;-57
2022/08/04 04:01:31;;;;;;;28.27;23.70;;;;;;;;;;768042;182;637466;-57
2022/08/04 04:03:58;;;;;;;30.37;22.80;;;;;;;;;;770329;181;635276;-58
2022/08/04 04:06:40;;;;;;;28.13;22.10;;;;;;;;;;765991;182;613055;-57
2022/08/04 04:09:12;;;;;;;26.40;21.60;;;;;;;;;;766905;180;616894;-56
2022/08/04 04:11:40;;;;;;;24.97;21.80;;;;;;;;;;767018;177;617297;-57
2022/08/04 04:14:07;;;;;;;25.20;22.30;;;;;;;;;;768225;177;629580;-58
2022/08/04 04:16:34;;;;;;;30.33;21.63;;;;;;;;;;772730;177;630950;-57
2022/08/04 04:19:02;;;;;;;24.17;20.10;;;;;;;;;;770112;176;637125;-57
2022/08/04 04:21:28;;;;;;;26.53;20.83;;;;;;;;;;771708;180;631536;-57
2022/08/04 04:24:00;;;;;;;23.03;20.53;;;;;;;;;;769784;177;627463;-57
2022/08/04 04:26:37;;;;;;;25.13;20.43;;;;;;;;;;773368;177;625575;-57
2022/08/04 04:29:17;;;;;;;23.53;20.03;;;;;;;;;;768889;182;614770;-59
2022/08/04 04:31:45;;;;;;;22.87;20.40;;;;;;;;;;768710;180;617389;-58
2022/08/04 04:34:12;;;;;;;23.40;20.47;;;;;;;;;;762822;178;615574;-58
2022/08/04 04:36:42;;;;;;;23.83;21.27;;;;;;;;;;763689;178;628859;-58
2022/08/04 04:39:09;;;;;;;23.20;20.70;;;;;;;;;;761767;182;627557;-59
2022/08/04 04:41:40;;;;;;;22.73;18.80;;;;;;;;;;751158;188;630237;-59
2022/08/04 04:44:24;;;;;;;22.33;20.03;;;;;;;;;;776026;181;635646;-57
2022/08/04 04:47:05;;;;;;;22.90;20.40;;;;;;;;;;771639;177;617295;-60
2022/08/04 04:49:36;;;;;;;28.40;20.67;;;;;;;;;;769191;177;629269;-58
2022/08/04 04:52:03;;;;;;;22.10;19.77;;;;;;;;;;768910;177;641376;-58
2022/08/04 04:54:28;;;;;;;22.73;18.83;;;;;;;;;;768526;179;627510;-60
2022/08/04 04:57:02;;;;;;;25.63;19.63;;;;;;;;;;763660;183;616365;-59
2022/08/04 04:59:27;;;;;;;22.73;18.63;;;;;;;;;;761336;181;626194;-57
2022/08/04 05:01:54;;;;;;;23.17;18.03;;;;;;;;;;761633;183;623176;-60
2022/08/04 05:04:37;;;;;;;21.67;17.87;;;;;;;;;;760091;185;629419;-59
2022/08/04 05:07:22;;;;;;;21.47;18.00;;;;;;;;;;762079;183;627205;-58
2022/08/04 05:09:50;;;;;;;21.43;18.87;;;;;;;;;;767290;183;618489;-60
2022/08/04 05:12:34;;;;;;;26.77;20.77;;;;;;;;;;771328;178;626315;-58
2022/08/04 05:14:59;;;;;;;21.33;17.87;;;;;;;;;;772361;183;628734;-59
2022/08/04 05:17:26;;;;;;;22.48;19.02;;;;;;;;;;768717;182;617038;-56
2022/08/04 05:20:06;;;;;;;22.90;18.70;;;;;;;;;;768713;177;613971;-58
2022/08/04 05:22:32;;;;;;;20.40;18.20;;;;;;;;;;758579;183;630011;-60
2022/08/04 05:25:12;;;;;;;25.03;18.57;;;;;;;;;;765821;182;623778;-58
2022/08/04 05:27:39;;;;;;;22.13;18.77;;;;;;;;;;768469;182;615820;-60
2022/08/04 05:30:05;;;;;;;25.57;18.50;;;;;;;;;;764929;183;633817;-61
2022/08/04 05:32:32;;;;;;;20.70;18.13;;;;;;;;;;760102;178;640848;-58
2022/08/04 05:34:58;;;;;;;21.63;17.93;;;;;;;;;;767369;181;622304;-60
2022/08/04 05:37:24;;;;;;;25.30;18.70;;;;;;;;;;769875;177;609476;-61
2022/08/04 05:39:52;;;;;;;24.07;17.23;;;;;;;;;;764898;178;620544;-60
2022/08/04 05:42:18;;;;;;;20.10;17.87;;;;;;;;;;766764;178;620533;-59
2022/08/04 05:44:44;;;;;;;27.13;18.53;;;;;;;;;;774706;182;614250;-58
2022/08/04 05:47:10;;;;;;;19.63;17.00;;;;;;;;;;772462;177;624564;-61
2022/08/04 05:49:36;;;;;;;20.17;18.17;;;;;;;;;;771038;178;624330;-58
2022/08/04 05:52:02;;;;;;;18.17;16.00;;;;;;;;;;771205;179;619334;-61
2022/08/04 05:54:28;;;;;;;22.70;16.70;;;;;;;;;;759672;180;624919;-60
2022/08/04 05:56:54;;;;;;;19.10;16.50;;;;;;;;;;764530;181;614533;-58
2022/08/04 05:59:20;;;;;;;20.42;15.90;;;;;;;;;;768998;183;620572;-58
2022/08/04 06:01:45;;;;;;;17.23;15.50;;;;;;;;;;767364;182;630312;-59
2022/08/04 06:04:11;;;;;;;17.80;16.00;;;;;;;;;;764648;178;620433;-58
2022/08/04 06:06:37;;;;;;;19.40;16.93;;;;;;;;;;767319;177;630113;-58
2022/08/04 06:09:03;;;;;;;18.40;16.43;;;;;;;;;;773624;177;617446;-61
2022/08/04 06:11:29;;;;;;;17.67;15.77;;;;;;;;;;768702;179;624015;-58
2022/08/04 06:13:55;;;;;;;20.83;15.83;;;;;;;;;;762536;178;634180;-58
2022/08/04 06:16:21;;;;;;;18.40;16.10;;;;;;;;;;766980;183;634932;-58
2022/08/04 06:18:47;;;;;;;17.10;14.97;;;;;;;;;;768572;180;634093;-62
2022/08/04 06:21:13;;;;;;;31.23;14.97;;;;;;;;;;768360;177;630237;-58
2022/08/04 06:23:39;;;;;;;18.70;16.60;;;;;;;;;;772422;177;627206;-62
2022/08/04 06:26:05;;;;;;;16.97;15.23;;;;;;;;;;768472;180;621073;-62
2022/08/04 06:28:30;;;;;;;17.40;15.60;;;;;;;;;;768236;177;631337;-58
2022/08/04 06:31:01;;;;;;;17.67;15.60;;;;;;;;;;768588;181;630500;-58
2022/08/04 06:33:32;;;;;;;15.03;13.53;;;;;;;;;;772885;180;639009;-58
2022/08/04 06:35:54;;;;;;;17.00;14.93;;;;;;;;;;764532;178;648387;-62
2022/08/04 06:38:18;;;;;;;18.73;14.00;;;;;;;;;;769437;177;633022;-58
2022/08/04 06:40:43;;;;;;;16.20;13.70;;;;;;;;;;774973;176;622890;-61
2022/08/04 06:43:09;;;;;;;15.57;13.90;;;;;;;;;;763270;178;620159;-58
2022/08/04 06:45:35;;;;;;;16.87;14.07;;;;;;;;;;763023;181;636015;-58
2022/08/04 06:48:01;;;;;;;15.80;14.13;;;;;;;;;;769505;182;632387;-59
2022/08/04 06:50:27;;;;;;;14.10;12.60;;;;;;;;;;776387;180;624876;-58
2022/08/04 06:52:53;;;;;;;14.60;13.00;;;;;;;;;;760655;179;615474;-58
2022/08/04 06:55:18;;;;;;;14.40;12.63;;;;;;;;;;759331;178;622651;-59
2022/08/04 06:57:45;;;;;;;17.37;14.20;;;;;;;;;;771272;179;622772;-58
2022/08/04 07:00:11;;;;;;;13.83;12.53;;;;;;;;;;768928;183;611490;-61
2022/08/04 07:02:38;;;;;;;13.50;12.20;;;;;;;;;;769191;177;632853;-61
2022/08/04 07:05:05;;;;;;;13.07;11.67;;;;;;;;;;772833;183;625427;-59
2022/08/04 07:07:30;;;;;;;13.53;12.10;;;;;;;;;;768735;178;624446;-62
2022/08/04 07:09:56;;;;;;;15.93;14.27;;;;;;;;;;768939;177;616396;-62
2022/08/04 07:12:22;;;;;;;16.97;13.13;;;;;;;;;;768595;178;623941;-62
2022/08/04 07:14:48;;;;;;;13.40;12.10;;;;;;;;;;767362;181;616264;-59
2022/08/04 07:17:14;;;;;;;24.70;13.23;;;;;;;;;;765430;183;623634;-62
2022/08/04 07:19:39;;;;;;;13.20;11.97;;;;;;;;;;770180;179;627168;-62
2022/08/04 07:22:05;;;;;;;12.93;11.63;;;;;;;;;;775972;181;623253;-59
2022/08/04 07:24:31;;;;;;;15.80;13.30;;;;;;;;;;770232;177;620948;-62
2022/08/04 07:26:57;;;;;;;12.47;11.07;;;;;;;;;;768743;180;626613;-59
2022/08/04 07:29:23;;;;;;;16.37;12.40;;;;;;;;;;769636;177;634623;-63
2022/08/04 07:31:50;;;;;;;13.00;11.70;;;;;;;;;;766581;182;642113;-59
2022/08/04 07:34:16;;;;;;;14.70;12.10;;;;;;;;;;768691;177;625503;-59
2022/08/04 07:36:42;;;;;;;13.43;12.03;;;;;;;;;;764993;181;617200;-63
2022/08/04 07:39:08;;;;;;;13.17;11.87;;;;;;;;;;770987;177;637559;-62
2022/08/04 07:41:34;;;;;;;13.00;11.60;;;;;;;;;;763997;178;635035;-60
2022/08/04 07:43:59;;;;;;;13.70;12.30;;;;;;;;;;766083;181;683537;-59
2022/08/04 07:46:25;;;;;;;14.82;13.23;;;;;;;;;;769978;180;631371;-59
2022/08/04 07:48:51;;;;;;;12.10;10.90;;;;;;;;;;764936;178;620100;-63
2022/08/04 07:51:17;;;;;;;11.63;10.53;;;;;;;;;;769167;181;629132;-63
2022/08/04 07:53:43;;;;;;;12.97;11.50;;;;;;;;;;770022;181;618327;-63
2022/08/04 07:56:09;;;;;;;11.93;10.80;;;;;;;;;;768839;178;633762;-63
2022/08/04 07:58:35;;;;;;;12.23;11.03;;;;;;;;;;769238;177;636405;-60
2022/08/04 08:01:00;;;;;;;13.17;11.87;;;;;;;;;;767178;177;622543;-59
2022/08/04 08:03:26;;;;;;;14.70;11.03;;;;;;;;;;765697;182;620345;-59
2022/08/04 08:05:52;;;;;;;13.57;10.90;;;;;;;;;;763875;178;628630;-62
2022/08/04 08:08:20;;;;;;;11.80;10.60;;;;;;;;;;765374;182;622584;-60
2022/08/04 08:10:45;;;;;;;11.30;10.20;;;;;;;;;;772554;181;626024;-64
2022/08/04 08:13:10;;;;;;;15.20;10.80;;;;;;;;;;765733;181;619616;-59
2022/08/04 08:15:36;;;;;;;12.37;9.67;;;;;;;;;;765837;181;625956;-64
2022/08/04 08:18:02;;;;;;;11.83;10.63;;;;;;;;;;772487;180;620123;-63
2022/08/04 08:20:28;;;;;;;10.90;9.80;;;;;;;;;;770243;182;617915;-58
2022/08/04 08:22:54;;;;;;;11.60;10.50;;;;;;;;;;771081;182;624310;-64
2022/08/04 08:25:20;;;;;;;12.50;10.97;;;;;;;;;;764873;180;624042;-63
2022/08/04 08:27:46;;;;;;;10.70;9.70;;;;;;;;;;765948;182;627206;-63
2022/08/04 08:30:12;;;;;;;19.73;11.30;;;;;;;;;;765872;178;617489;-59
2022/08/04 08:32:37;;;;;;;18.93;11.30;;;;;;;;;;765577;180;628811;-59
2022/08/04 08:35:03;;;;;;;11.20;10.10;;;;;;;;;;772100;177;625382;-59
2022/08/04 08:37:35;;;;;;;11.80;10.50;;;;;;;;;;767131;183;634183;-60
2022/08/04 08:40:22;;;;;;;10.43;9.43;;;;;;;;;;767104;182;619566;-63
2022/08/04 08:42:49;;;;;;;10.90;9.70;;;;;;;;;;756940;182;616153;-63
2022/08/04 08:45:35;;;;;;;10.83;8.60;;;;;;;;;;765963;177;636373;-60
2022/08/04 08:48:04;;;;;;;11.43;10.33;;;;;;;;;;761652;182;629558;-63
2022/08/04 08:50:45;;;;;;;9.50;8.37;;;;;;;;;;772173;181;617290;-59
2022/08/04 08:53:17;;;;;;;11.10;10.10;;;;;;;;;;771763;178;620407;-59
2022/08/04 08:55:46;;;;;;;12.47;9.47;;;;;;;;;;768590;180;626805;-63
2022/08/04 08:58:16;;;;;;;10.27;8.57;;;;;;;;;;764692;183;625500;-60
2022/08/04 09:00:47;;;;;;;10.57;9.00;;;;;;;;;;765157;177;626139;-63
2022/08/04 09:03:13;;;;;;;10.00;9.10;;;;;;;;;;765693;181;617591;-60
2022/08/04 09:05:42;;;;;;;9.17;8.20;;;;;;;;;;763358;183;634095;-59
2022/08/04 09:08:08;;;;;;;8.10;7.37;;;;;;;;;;769222;178;618961;-63
2022/08/04 09:10:40;;;;;;;8.23;7.37;;;;;;;;;;767381;181;634837;-59
2022/08/04 09:13:08;;;;;;;8.88;8.05;;;;;;;;;;767591;181;629944;-62
2022/08/04 09:15:35;;;;;;;10.33;8.50;;;;;;;;;;765422;182;629020;-59
2022/08/04 09:18:01;;;;;;;7.43;6.70;;;;;;;;;;765491;179;632782;-59
2022/08/04 09:20:27;;;;;;;8.83;8.00;;;;;;;;;;766194;180;618021;-59
2022/08/04 09:22:57;;;;;;;8.20;7.40;;;;;;;;;;770303;178;623445;-63
2022/08/04 09:25:24;;;;;;;9.17;8.23;;;;;;;;;;767029;178;627175;-59
2022/08/04 09:27:49;;;;;;;8.50;7.60;;;;;;;;;;768892;177;617177;-63
2022/08/04 09:30:15;;;;;;;9.50;7.20;;;;;;;;;;767642;180;626294;-63
2022/08/04 09:32:41;;;;;;;12.30;8.10;;;;;;;;;;765738;181;621056;-64
2022/08/04 09:35:13;;;;;;;8.70;7.90;;;;;;;;;;766394;177;620144;-59
2022/08/04 09:37:39;;;;;;;8.93;8.10;;;;;;;;;;766406;180;629828;-61
2022/08/04 09:40:07;;;;;;;11.23;8.30;;;;;;;;;;769562;181;632670;-59
2022/08/04 09:42:33;;;;;;;9.53;6.67;;;;;;;;;;768426;180;626391;-61
2022/08/04 09:44:59;;;;;;;8.80;7.87;;;;;;;;;;767862;177;692295;-59
2022/08/04 09:47:30;;;;;;;7.17;6.53;;;;;;;;;;765486;182;625121;-63
2022/08/04 09:49:57;;;;;;;10.33;6.40;;;;;;;;;;768683;180;619431;-59
2022/08/04 09:52:23;;;;;;;7.90;6.67;;;;;;;;;;765414;177;632083;-63
2022/08/04 09:55:03;;;;;;;7.00;6.30;;;;;;;;;;768045;180;627200;-62
2022/08/04 09:57:45;;;;;;;6.07;5.47;;;;;;;;;;758917;182;622045;-59
2022/08/04 10:00:12;;;;;;;6.03;5.40;;;;;;;;;;765053;180;617845;-59
2022/08/04 10:02:37;;;;;;;7.87;5.77;;;;;;;;;;768759;178;619471;-59
2022/08/04 10:05:03;;;;;;;5.90;5.30;;;;;;;;;;766843;180;626699;-58
2022/08/04 10:07:29;;;;;;;6.10;5.50;;;;;;;;;;765862;177;629043;-61
2022/08/04 10:10:05;;;;;;;8.90;5.20;;;;;;;;;;765798;181;629751;-59
2022/08/04 10:12:37;;;;;;;6.80;6.03;;;;;;;;;;767114;182;625156;-59
2022/08/04 10:15:06;;;;;;;6.60;5.50;;;;;;;;;;771711;179;615149;-59
2022/08/04 10:17:37;;;;;;;6.40;5.60;;;;;;;;;;769678;180;626374;-59
2022/08/04 10:20:07;;;;;;;8.67;5.63;;;;;;;;;;769123;177;616449;-59
2022/08/04 10:22:33;;;;;;;6.73;5.97;;;;;;;;;;766529;178;630184;-59
2022/08/04 10:25:04;;;;;;;7.27;5.10;;;;;;;;;;762591;183;615225;-59
2022/08/04 10:27:33;;;;;;;8.10;6.30;;;;;;;;;;768261;178;644491;-59
2022/08/04 10:29:58;;;;;;;9.90;6.00;;;;;;;;;;767876;180;629502;-59
2022/08/04 10:32:24;;;;;;;11.97;6.60;;;;;;;;;;777190;178;615673;-60
2022/08/04 10:34:54;;;;;;;6.80;6.10;;;;;;;;;;764597;183;618823;-57
2022/08/04 10:37:21;;;;;;;6.10;5.50;;;;;;;;;;762138;178;631525;-59
2022/08/04 10:40:35;;;;;;;4.83;4.33;;;;;;;;;;768939;180;621249;-61
2022/08/04 10:42:16;;;;;;;8.53;6.53;;;;;;;;;;768173;180;629220;-58
2022/08/04 10:44:46;;;;;;;8.63;6.07;;;;;;;;;;766797;179;626960;-60
2022/08/04 10:47:14;;;;;;;6.70;5.90;;;;;;;;;;767466;180;611834;-65
2022/08/04 10:49:39;;;;;;;6.10;5.50;;;;;;;;;;766660;180;615088;-61
2022/08/04 10:52:06;;;;;;;6.60;5.67;;;;;;;;;;767259;179;626729;-60
2022/08/04 10:54:42;;;;;;;8.33;5.37;;;;;;;;;;766994;178;617266;-59
2022/08/04 10:57:04;;;;;;;6.20;5.57;;;;;;;;;;765498;177;629194;-59
2022/08/04 10:59:30;;;;;;;9.93;6.33;;;;;;;;;;766165;180;631680;-60
2022/08/04 11:01:57;;;;;;;7.07;6.37;;;;;;;;;;769059;179;633720;-59
2022/08/04 11:04:27;;;;;;;7.73;5.47;;;;;;;;;;765230;178;630269;-60
2022/08/04 11:06:52;;;;;;;9.87;7.50;;;;;;;;;;765278;177;629404;-59
2022/08/04 11:09:18;;;;;;;6.80;5.60;;;;;;;;;;770838;177;626799;-59
2022/08/04 11:11:44;;;;;;;5.27;4.77;;;;;;;;;;765938;180;623890;-59
2022/08/04 11:14:11;;;;;;;7.03;5.70;;;;;;;;;;765017;178;628762;-59
2022/08/04 11:16:39;;;;;;;5.83;5.20;;;;;;;;;;766551;182;640741;-60
2022/08/04 11:19:25;;;;;;;6.47;5.87;;;;;;;;;;768442;177;627130;-62
2022/08/04 11:21:55;;;;;;;6.10;5.27;;;;;;;;;;771950;177;633642;-62
2022/08/04 11:24:25;;;;;;;5.50;5.00;;;;;;;;;;765540;179;625205;-61
2022/08/04 11:26:52;;;;;;;7.07;4.70;;;;;;;;;;767382;180;632073;-59
2022/08/04 11:29:21;;;;;;;5.03;4.53;;;;;;;;;;766419;179;633494;-58
2022/08/04 11:31:47;;;;;;;5.43;4.67;;;;;;;;;;772026;181;626845;-61
2022/08/04 11:34:21;;;;;;;5.13;4.60;;;;;;;;;;765906;180;631271;-59
2022/08/04 11:36:49;;;;;;;6.50;4.40;;;;;;;;;;765998;180;662796;-60
2022/08/04 11:39:15;;;;;;;5.00;4.10;;;;;;;;;;767316;180;629472;-59
2022/08/04 11:41:41;;;;;;;6.00;4.37;;;;;;;;;;770386;179;620732;-61
2022/08/04 11:44:07;;;;;;;4.87;4.20;;;;;;;;;;766505;181;635644;-60
2022/08/04 11:46:35;;;;;;;6.03;5.20;;;;;;;;;;766281;181;635882;-61
2022/08/04 11:49:01;;;;;;;5.03;4.50;;;;;;;;;;768155;178;617150;-60
2022/08/04 11:51:27;;;;;;;6.80;5.03;;;;;;;;;;765473;183;615980;-59
2022/08/04 11:53:53;;;;;;;6.30;5.67;;;;;;;;;;766845;176;616689;-59
2022/08/04 11:56:19;;;;;;;5.67;5.10;;;;;;;;;;765305;181;627381;-59
2022/08/04 11:58:45;;;;;;;5.30;4.80;;;;;;;;;;770290;183;613213;-58
2022/08/04 12:01:15;;;;;;;5.73;5.20;;;;;;;;;;764978;176;677007;-59
2022/08/04 12:03:58;;;;;;;5.13;4.43;;;;;;;;;;763773;182;627530;-60
2022/08/04 12:06:28;;;;;;;6.83;4.73;;;;;;;;;;769824;181;627480;-61
2022/08/04 12:09:12;;;;;;;6.03;5.43;;;;;;;;;;767678;180;622691;-59
2022/08/04 12:11:44;;;;;;;6.40;5.07;;;;;;;;;;750513;184;623758;-59
2022/08/04 12:14:29;;;;;;;6.30;5.67;;;;;;;;;;767281;183;624223;-60
2022/08/04 12:16:59;;;;;;;6.60;5.87;;;;;;;;;;763482;183;627430;-59
2022/08/04 12:19:26;;;;;;;6.20;5.10;;;;;;;;;;763435;178;637532;-60
2022/08/04 12:21:54;;;;;;;5.53;4.90;;;;;;;;;;759796;178;634149;-60
2022/08/04 12:24:21;;;;;;;5.57;5.03;;;;;;;;;;759403;182;626990;-57
2022/08/04 12:26:51;;;;;;;5.30;4.80;;;;;;;;;;766013;178;635128;-59
2022/08/04 12:29:17;;;;;;;6.27;5.67;;;;;;;;;;765814;177;615438;-59
2022/08/04 12:31:47;;;;;;;6.30;5.70;;;;;;;;;;769488;180;626681;-59
2022/08/04 12:34:29;;;;;;;6.60;4.87;;;;;;;;;;766655;177;634560;-59
2022/08/04 12:37:00;;;;;;;5.40;4.80;;;;;;;;;;764076;183;626759;-61
2022/08/04 12:39:26;;;;;;;6.50;5.20;;;;;;;;;;775061;179;619578;-59
2022/08/04 12:41:52;;;;;;;6.90;5.43;;;;;;;;;;770059;177;630598;-60
2022/08/04 12:44:18;;;;;;;5.87;5.30;;;;;;;;;;769138;178;627220;-60
2022/08/04 12:46:44;;;;;;;5.37;4.80;;;;;;;;;;766916;183;629433;-60
2022/08/04 12:49:10;;;;;;;7.03;5.37;;;;;;;;;;765886;179;612361;-60
2022/08/04 12:51:35;;;;;;;5.00;4.40;;;;;;;;;;766931;177;636241;-59
2022/08/04 12:54:02;;;;;;;5.57;4.97;;;;;;;;;;769532;182;619377;-61
2022/08/04 12:56:28;;;;;;;5.50;5.00;;;;;;;;;;770457;182;611834;-59
2022/08/04 12:58:53;;;;;;;6.97;5.20;;;;;;;;;;766518;178;626111;-60
2022/08/04 13:01:19;;;;;;;6.67;5.20;;;;;;;;;;769964;180;622761;-59
2022/08/04 13:03:49;;;;;;;5.97;5.37;;;;;;;;;;770871;183;622966;-60
2022/08/04 13:06:15;;;;;;;6.00;5.40;;;;;;;;;;762592;181;630582;-60
2022/08/04 13:08:41;;;;;;;7.77;5.60;;;;;;;;;;763033;183;620725;-59
2022/08/04 13:11:06;;;;;;;7.00;5.93;;;;;;;;;;768060;179;619395;-61
2022/08/04 13:13:32;;;;;;;5.67;5.07;;;;;;;;;;768603;183;620009;-59
2022/08/04 13:15:59;;;;;;;6.47;5.87;;;;;;;;;;764825;177;623212;-59
2022/08/04 13:18:25;;;;;;;5.70;5.00;;;;;;;;;;765598;177;619343;-59
2022/08/04 13:20:51;;;;;;;6.13;5.53;;;;;;;;;;769298;178;622726;-59
2022/08/04 13:23:16;;;;;;;6.07;5.43;;;;;;;;;;765731;178;623769;-60
2022/08/04 13:25:42;;;;;;;7.23;5.23;;;;;;;;;;767687;180;626680;-61
2022/08/04 13:28:18;;;;;;;5.40;4.60;;;;;;;;;;771538;177;614707;-61
2022/08/04 13:30:44;;;;;;;5.90;5.40;;;;;;;;;;764708;181;634559;-59
2022/08/04 13:33:10;;;;;;;6.40;5.80;;;;;;;;;;763743;177;627164;-60
2022/08/04 13:35:37;;;;;;;5.97;5.43;;;;;;;;;;765629;177;619400;-60
2022/08/04 13:38:01;;;;;;;6.77;5.30;;;;;;;;;;772724;178;616942;-60
2022/08/04 13:40:27;;;;;;;6.50;5.13;;;;;;;;;;760103;178;629341;-60
2022/08/04 13:42:53;;;;;;;5.70;4.80;;;;;;;;;;763949;182;635655;-59
2022/08/04 13:45:20;;;;;;;5.67;4.97;;;;;;;;;;764575;180;636588;-61
2022/08/04 13:47:46;;;;;;;5.23;4.60;;;;;;;;;;768606;180;629309;-59
2022/08/04 13:50:11;;;;;;;5.73;4.83;;;;;;;;;;768075;178;627332;-59
2022/08/04 13:52:37;;;;;;;6.00;5.40;;;;;;;;;;766143;178;645146;-61
2022/08/04 13:55:03;;;;;;;6.30;5.70;;;;;;;;;;769906;181;638850;-59
2022/08/04 13:57:29;;;;;;;6.53;5.93;;;;;;;;;;766552;178;638727;-61
2022/08/04 13:59:57;;;;;;;6.50;5.90;;;;;;;;;;767959;181;633042;-61
2022/08/04 14:02:28;;;;;;;6.20;5.60;;;;;;;;;;771887;182;622946;-60
2022/08/04 14:04:56;;;;;;;8.80;5.97;;;;;;;;;;763373;178;635744;-59
2022/08/04 14:07:21;;;;;;;7.47;5.43;;;;;;;;;;762978;177;619454;-59
2022/08/04 14:09:46;;;;;;;15.23;6.10;;;;;;;;;;766994;183;620361;-61
2022/08/04 14:12:12;;;;;;;6.67;5.73;;;;;;;;;;770306;180;634268;-60
2022/08/04 14:14:46;;;;;;;7.47;5.63;;;;;;;;;;762373;181;631453;-61
2022/08/04 14:17:12;;;;;;;6.70;6.10;;;;;;;;;;767698;178;617296;-59
2022/08/04 14:19:44;;;;;;;6.77;5.70;;;;;;;;;;766863;177;631848;-59
2022/08/04 14:22:10;;;;;;;6.90;5.40;;;;;;;;;;771596;177;615315;-60
2022/08/04 14:24:35;;;;;;;5.43;4.93;;;;;;;;;;764051;183;624365;-61